Flight Track Log - Related Links

Times and Time Zones

All times are in EDT time to prevent confusion due to time zone crossing. See the SWA376 flight status page for this flight to view local times or setup timezone preferences in your user account.

Time Position Orientation Groundspeed Altitude Reporting Facility
EDT Latitude Longitude Course Direction KTS MPH feet Rate Location/Type
Mon 05:25:57 PM 39.8603 -75.2817 259° West 152 175 1,000  Level FAA TRACON SMA TRACON (SMA)
Mon 05:26:17 PM 39.8569 -75.3044 259° West 164 189 1,500 1,500 Climbing FAA TRACON SMA TRACON (SMA)
Mon 05:26:37 PM 39.8542 -75.3256 260° West 208 239 2,000 1,950 Climbing FAA TRACON SMA TRACON (SMA)
Mon 05:26:57 PM 39.8508 -75.3492 260° West 210 242 2,800 2,400 Climbing FAA TRACON SMA TRACON (SMA)
Mon 05:27:17 PM 39.8467 -75.3792 260° West 218 251 3,600 1,800 Climbing FAA TRACON SMA TRACON (SMA)
Mon 05:27:37 PM 39.8478 -75.4072 273° West 275 316 4,000 2,100 Climbing FAA TRACON SMA TRACON (SMA)
Mon 05:27:57 PM 39.8622 -75.4300 310° West 281 323 5,000 3,300 Climbing FAA TRACON SMA TRACON (SMA)
Mon 05:28:17 PM 39.8842 -75.4406 340° North 279 321 6,200 3,900 Climbing FAA TRACON SMA TRACON (SMA)
Mon 05:28:37 PM 39.9133 -75.4506 345° North 280 322 7,600 3,750 Climbing FAA TRACON SMA TRACON (SMA)
Mon 05:28:57 PM 39.9358 -75.4586 345° North 278 320 8,700 3,150 Climbing FAA TRACON SMA TRACON (SMA)
Mon 05:29:17 PM 39.9600 -75.4675 344° North 281 323 9,700 2,100 Climbing FAA TRACON SMA TRACON (SMA)
Mon 05:29:37 PM 39.9894 -75.4783 344° North 283 326 10,100 900 Climbing FAA TRACON SMA TRACON (SMA)
Mon 05:29:57 PM 40.0139 -75.4872 344° North 295 339 10,300 1,500 Climbing FAA TRACON SMA TRACON (SMA)
Mon 05:30:17 PM 40.0425 -75.4972 345° North 331 381 11,100 2,850 Climbing FAA TRACON SMA TRACON (SMA)
Mon 05:30:37 PM 40.0781 -75.5094 345° North 340 391 12,200 2,700 Climbing FAA TRACON SMA TRACON (SMA)
Mon 05:30:57 PM 40.1072 -75.5197 345° North 350 403 12,900 1,385 Climbing FAA TRACON SMA TRACON (SMA)
Mon 05:31:16 PM 40.1358 -75.5300 345° North 350 403 13,100 1,538 Climbing FAA TRACON SMA TRACON (SMA)
Mon 05:31:36 PM 40.1722 -75.5425 345° North 350 403 13,900 2,615 Climbing FAA TRACON SMA TRACON (SMA)
Mon 05:31:55 PM 40.2011 -75.5531 344° North 351 404 14,800 2,850 Climbing FAA TRACON SMA TRACON (SMA)
Mon 05:32:16 PM 40.2278 -75.5731 330° Northwest 352 405 15,800 2,634 Climbing FAA TRACON SMA TRACON (SMA)
Mon 05:32:36 PM 40.2458 -75.5958 316° Northwest 354 407 16,600 1,950 Climbing FAA TRACON SMA TRACON (SMA)
Mon 05:32:56 PM 40.2733 -75.6383 310° West 354 407 17,100 750 Climbing FAA TRACON SMA TRACON (SMA)
Mon 05:33:16 PM 40.2931 -75.6681 311° West 353 406 17,100  Level FAA TRACON SMA TRACON (SMA)
Mon 05:33:36 PM 40.3172 -75.7033 312° West 351 404 17,100  Level FAA TRACON SMA TRACON (SMA)
Mon 05:33:56 PM 40.3372 -75.7344 310° West 348 400 17,100  Level FAA TRACON SMA TRACON (SMA)
Mon 05:34:15 PM 40.3567 -75.7636 311° West 347 399 17,100  Level FAA TRACON SMA TRACON (SMA)
Mon 05:34:36 PM 40.3714 -75.7858 311° West 348 400 17,100  Level FAA TRACON SMA TRACON (SMA)
Mon 05:34:55 PM 40.3714 -75.7858 246° West 348 400 17,100 -140 Level FAA TRACON SMA TRACON (SMA)
Mon 05:35:19 PM 40.4169 -75.8497 313° West 350 403 17,000 -74 Descending New York Center
Mon 05:36:16 PM 40.4556 -75.9697 293° West 350 403 17,000 605 Level New York Center
Mon 05:37:18 PM 40.4747 -76.0994 281° West 344 396 18,200 976 Climbing New York Center
Mon 05:38:19 PM 40.4903 -76.2125 280° West 344 396 19,000 559 Climbing New York Center
Mon 05:39:16 PM 40.5114 -76.3400 282° West 353 406 19,300 1,424 Climbing New York Center
Mon 05:40:17 PM 40.5306 -76.4672 281° West 353 406 21,800 2,361 Climbing New York Center
Mon 05:41:18 PM 40.5508 -76.6028 281° West 358 412 24,100 2,269 Climbing New York Center
Mon 05:42:16 PM 40.5858 -76.7367 289° West 375 432 26,300 1,916 Climbing New York Center
Mon 05:43:17 PM 40.6247 -76.8742 290° West 393 452 27,900 1,700 Climbing New York Center
Mon 05:44:16 PM 40.6667 -77.0311 289° West 400 460 29,700 2,168 Climbing New York Center
Mon 05:45:16 PM 40.7028 -77.1714 289° West 405 466 32,200 2,132 Climbing New York Center
Mon 05:46:17 PM 40.7369 -77.3089 288° West 405 466 34,000 893 Climbing New York Center
Mon 05:47:17 PM 40.7703 -77.4217 291° West 392 451 34,000  Level New York Center
Mon 05:49:33 PM 40.8508 -77.7364 289° West 381 438 34,000  Level Cleveland Center
Mon 05:50:33 PM 40.8811 -77.8642 287° West 381 438 34,000  Level Cleveland Center
Mon 05:51:33 PM 40.9156 -77.9947 289° West 376 433 34,000  Level Cleveland Center
Mon 05:52:33 PM 40.9308 -78.1289 279° West 376 433 34,000  Level Cleveland Center
Mon 05:53:33 PM 40.9506 -78.2628 281° West 376 433 34,000  Level Cleveland Center
Mon 05:54:33 PM 40.9678 -78.3969 280° West 371 427 34,000  Level Cleveland Center
Mon 05:55:33 PM 40.9847 -78.5283 280° West 371 427 34,000  Level Cleveland Center
Mon 05:56:33 PM 40.9994 -78.6600 278° West 371 427 34,000  Level Cleveland Center
Mon 05:57:33 PM 41.0142 -78.7889 279° West 366 421 34,000  Level Cleveland Center
Mon 05:58:33 PM 41.0286 -78.9206 278° West 366 421 34,000  Level Cleveland Center
Mon 05:59:33 PM 41.0450 -79.0525 279° West 371 427 34,000  Level Cleveland Center
Mon 06:00:33 PM 41.0592 -79.1814 278° West 371 427 34,000  Level Cleveland Center
Mon 06:01:33 PM 41.0733 -79.3133 278° West 371 427 34,000  Level Cleveland Center
Mon 06:02:33 PM 41.0892 -79.4453 279° West 366 421 34,000  Level Cleveland Center
Mon 06:03:33 PM 41.1008 -79.5747 277° West 366 421 34,000  Level Cleveland Center
Mon 06:04:33 PM 41.1167 -79.7067 279° West 366 421 34,000  Level Cleveland Center
Mon 06:05:33 PM 41.1300 -79.8389 278° West 366 421 34,000  Level Cleveland Center
Mon 06:06:33 PM 41.1433 -79.9711 278° West 371 427 34,000  Level Cleveland Center
Mon 06:07:33 PM 41.1606 -80.0978 280° West 371 427 34,000  Level Cleveland Center
Mon 06:08:33 PM 41.1714 -80.2189 277° West 371 427 34,000  Level Cleveland Center
Mon 06:09:33 PM 41.1842 -80.3514 277° West 371 427 34,000  Level Cleveland Center
Mon 06:10:33 PM 41.1992 -80.4839 279° West 371 427 34,000  Level Cleveland Center
Mon 06:11:33 PM 41.2136 -80.6244 278° West 366 421 34,000  Level Cleveland Center
Mon 06:12:34 PM 41.2261 -80.7597 277° West 366 421 34,000  Level Cleveland Center
Mon 06:13:33 PM 41.2383 -80.8925 277° West 372 428 34,000  Level Cleveland Center
Mon 06:14:33 PM 41.2525 -81.0250 278° West 372 428 34,000  Level Cleveland Center
Mon 06:15:33 PM 41.2644 -81.1661 276° West 378 435 34,000  Level Cleveland Center
Mon 06:16:33 PM 41.2781 -81.3014 278° West 378 435 34,000  Level Cleveland Center
Mon 06:17:33 PM 41.2919 -81.4206 279° West 378 435 34,000  Level Cleveland Center
Mon 06:18:33 PM 41.3056 -81.5561 278° West 372 428 34,000  Level Cleveland Center
Mon 06:19:33 PM 41.3189 -81.6917 278° West 372 428 34,000  Level Cleveland Center
Mon 06:20:33 PM 41.3300 -81.8247 276° West 367 422 34,000  Level Cleveland Center
Mon 06:21:33 PM 41.3408 -81.9603 276° West 367 422 34,000  Level Cleveland Center
Mon 06:22:33 PM 41.3539 -82.0933 277° West 367 422 34,000  Level Cleveland Center
Mon 06:23:33 PM 41.3619 -82.2486 274° West 382 440 34,000  Level Cleveland Center
Mon 06:24:33 PM 41.3703 -82.3872 275° West 382 440 34,000  Level Cleveland Center
Mon 06:25:33 PM 41.3786 -82.5231 275° West 377 434 34,000 -200 Level Cleveland Center
Mon 06:26:33 PM 41.3867 -82.6561 275° West 377 434 33,600 -700 Descending Cleveland Center
Mon 06:27:33 PM 41.3925 -82.7947 273° West 367 422 32,600 -900 Descending Cleveland Center
Mon 06:28:33 PM 41.3983 -82.9167 274° West 367 422 31,800 -900 Descending Cleveland Center
Mon 06:29:33 PM 41.4078 -83.0611 275° West 373 429 30,800 -900 Descending Cleveland Center
Mon 06:30:33 PM 41.4147 -83.2136 274° West 380 437 30,000 -400 Descending Cleveland Center
Mon 06:31:33 PM 41.4219 -83.3553 274° West 386 444 30,000  Level Cleveland Center
Mon 06:32:33 PM 41.4275 -83.4689 274° West 386 444 30,000  Level Cleveland Center
Mon 06:33:33 PM 41.4339 -83.6217 273° West 386 444 30,000  Level Cleveland Center
Mon 06:34:33 PM 41.4403 -83.7658 273° West 386 444 30,000  Level Cleveland Center
Mon 06:35:33 PM 41.4467 -83.9075 273° West 386 444 30,000  Level Cleveland Center
Mon 06:36:33 PM 41.4550 -84.0522 274° West 386 444 30,000  Level Cleveland Center
Mon 06:38:36 PM 41.4689 -84.3450 274° West 383 441 30,000  Level Chicago Center
Mon 06:39:38 PM 41.4753 -84.4850 274° West 380 437 30,000  Level Chicago Center
Mon 06:40:40 PM 41.4803 -84.6253 273° West 379 436 30,000  Level Chicago Center
Mon 06:41:42 PM 41.4856 -84.7658 273° West 379 436 30,000  Level Chicago Center
Mon 06:42:44 PM 41.4917 -84.9331 273° West 378 435 30,000  Level Chicago Center
Mon 06:43:46 PM 41.4964 -85.0722 273° West 378 435 30,000 -387 Level Chicago Center
Mon 06:44:48 PM 41.5008 -85.2117 272° West 375 432 29,200 -1,742 Descending Chicago Center
Mon 06:45:50 PM 41.5047 -85.3508 272° West 372 428 26,400 -2,516 Descending Chicago Center
Mon 06:46:52 PM 41.5081 -85.4878 272° West 366 421 24,000 -1,161 Descending Chicago Center
Mon 06:47:54 PM 41.5131 -85.6175 273° West 347 399 24,000 -435 Level Chicago Center
Mon 06:48:56 PM 41.5172 -85.7450 273° West 343 395 23,100 -1,306 Descending Chicago Center
Mon 06:49:58 PM 41.5203 -85.8686 272° West 336 387 21,300 -2,226 Descending Chicago Center
Mon 06:51:00 PM 41.5244 -86.0103 272° West 318 366 18,500 -2,468 Descending Chicago Center
Mon 06:52:02 PM 41.5244 -86.1267 270° West 314 361 16,200 -2,274 Descending Chicago Center
Mon 06:53:04 PM 41.5233 -86.2439 269° West 316 364 13,800 -2,293 Descending Chicago Center
Mon 06:54:05 PM 41.5231 -86.3575 270° West 307 353 11,500 -1,659 Descending Chicago Center
Mon 06:55:07 PM 41.5228 -86.4697 270° West 304 350 10,400 -726 Descending Chicago Center
Mon 06:56:09 PM 41.5208 -86.5833 269° West 307 353 10,000 -194 Descending Chicago Center
Mon 06:57:11 PM 41.5194 -86.6967 269° West 306 352 10,000  Level Chicago Center
Mon 06:58:13 PM 41.5203 -86.8119 271° West 279 321 10,000 -97 Level Chicago Center
Mon 06:59:15 PM 41.5172 -86.8983 267° West 240 276 9,800 -634 Descending Chicago Center
Mon 07:00:16 PM 41.5181 -86.9883 271° West 242 278 8,700 -1,463 Descending Chicago Center
Mon 07:01:18 PM 41.5164 -87.1017 269° West 254 292 6,800 -1,723 Descending Chicago Center
Mon 07:01:50 PM 41.5167 -87.1500 270° West 250 288 6,000 -522 Descending Chicago TRACON
Mon 07:02:50 PM 41.5167 -87.2500 270° West 243 280 6,000 -500 Level Chicago TRACON
Mon 07:03:50 PM 41.5333 -87.3333 285° West 251 289 5,000 -1,000 Descending Chicago TRACON
Mon 07:04:50 PM 41.5333 -87.4333 270° West 254 292 4,000 -632 Descending Chicago TRACON
Mon 07:05:25 PM 41.5425 -87.4642 292° West 250 288 4,000  Level Chicago Center
Mon 07:06:27 PM 41.5558 -87.5711 279° West 249 287 4,000  Level Chicago Center
Mon 07:07:29 PM 41.5797 -87.6547 291° West 253 291 4,000 -145 Level Chicago Center
Mon 07:08:31 PM 41.6272 -87.7222 313° West 254 292 3,700 -370 Descending Chicago Center
Mon 07:08:50 PM 41.6500 -87.7500 318° Northwest 228 262 3,500 -835 Descending Chicago TRACON
Mon 07:09:50 PM 41.7000 -87.7833 334° Northwest 191 220 2,600 -893 Descending Chicago TRACON
Mon 07:10:51 PM 41.7333 -87.8000 340° North 147 169 1,700 -843 Descending Chicago TRACON
Mon 07:11:51 PM 41.7667 -87.7667 37° Northeast 135 155 900 -800 Descending Chicago TRACON

Login

Don't have an account? Register now (free) for customized features, flight alerts, and more!